sensor_id;sensor_type;location;lat;lon;timestamp;pressure;altitude;pressure_sealevel;temperature
75431;BMP280;64127;51.488;5.462;2024-02-21T00:01:36;102051.31;;;11.72
75431;BMP280;64127;51.488;5.462;2024-02-21T00:04:08;102050.44;;;11.71
75431;BMP280;64127;51.488;5.462;2024-02-21T00:06:41;102057.41;;;11.71
75431;BMP280;64127;51.488;5.462;2024-02-21T00:09:13;102054.94;;;11.74
75431;BMP280;64127;51.488;5.462;2024-02-21T00:11:45;102059.19;;;11.72
75431;BMP280;64127;51.488;5.462;2024-02-21T00:14:17;102050.50;;;11.73
75431;BMP280;64127;51.488;5.462;2024-02-21T00:16:49;102043.44;;;11.72
75431;BMP280;64127;51.488;5.462;2024-02-21T00:19:21;102051.31;;;11.72
75431;BMP280;64127;51.488;5.462;2024-02-21T00:21:53;102051.94;;;11.67
75431;BMP280;64127;51.488;5.462;2024-02-21T00:24:25;102057.09;;;11.66
75431;BMP280;64127;51.488;5.462;2024-02-21T00:26:57;102051.03;;;11.67
75431;BMP280;64127;51.488;5.462;2024-02-21T00:29:29;102051.03;;;11.67
75431;BMP280;64127;51.488;5.462;2024-02-21T00:32:01;102046.69;;;11.67
75431;BMP280;64127;51.488;5.462;2024-02-21T00:34:33;102037.91;;;11.67
75431;BMP280;64127;51.488;5.462;2024-02-21T00:37:07;102030.19;;;11.70
75431;BMP280;64127;51.488;5.462;2024-02-21T00:39:39;102018.78;;;11.69
75431;BMP280;64127;51.488;5.462;2024-02-21T00:42:11;102007.50;;;11.71
75431;BMP280;64127;51.488;5.462;2024-02-21T00:44:43;102005.56;;;11.68
75431;BMP280;64127;51.488;5.462;2024-02-21T00:47:15;101999.16;;;11.63
75431;BMP280;64127;51.488;5.462;2024-02-21T00:49:47;102001.78;;;11.63
75431;BMP280;64127;51.488;5.462;2024-02-21T00:52:20;101988.56;;;11.61
75431;BMP280;64127;51.488;5.462;2024-02-21T00:54:52;101984.97;;;11.59
75431;BMP280;64127;51.488;5.462;2024-02-21T00:57:26;101984.78;;;11.56
75431;BMP280;64127;51.488;5.462;2024-02-21T00:59:58;101977.56;;;11.52
75431;BMP280;64127;51.488;5.462;2024-02-21T01:02:30;101982.06;;;11.55
75431;BMP280;64127;51.488;5.462;2024-02-21T01:05:05;101993.31;;;11.52
75431;BMP280;64127;51.488;5.462;2024-02-21T01:07:38;101986.06;;;11.48
75431;BMP280;64127;51.488;5.462;2024-02-21T01:10:10;101995.84;;;11.51
75431;BMP280;64127;51.488;5.462;2024-02-21T01:12:42;101992.34;;;11.50
75431;BMP280;64127;51.488;5.462;2024-02-21T01:15:14;101986.25;;;11.51
75431;BMP280;64127;51.488;5.462;2024-02-21T01:17:47;101971.22;;;11.49
75431;BMP280;64127;51.488;5.462;2024-02-21T01:20:19;101973.97;;;11.50
75431;BMP280;64127;51.488;5.462;2024-02-21T01:22:51;101963.44;;;11.50
75431;BMP280;64127;51.488;5.462;2024-02-21T01:25:23;101962.53;;;11.50
75431;BMP280;64127;51.488;5.462;2024-02-21T01:27:55;101952.03;;;11.50
75431;BMP280;64127;51.488;5.462;2024-02-21T01:30:27;101952.38;;;11.56
75431;BMP280;64127;51.488;5.462;2024-02-21T01:32:59;101958.69;;;11.59
75431;BMP280;64127;51.488;5.462;2024-02-21T01:35:31;101959.44;;;11.57
75431;BMP280;64127;51.488;5.462;2024-02-21T01:38:03;101961.06;;;11.55
75431;BMP280;64127;51.488;5.462;2024-02-21T01:40:36;101952.09;;;11.51
75431;BMP280;64127;51.488;5.462;2024-02-21T01:43:18;101953.81;;;11.51
75431;BMP280;64127;51.488;5.462;2024-02-21T01:45:54;101949.66;;;11.54
75431;BMP280;64127;51.488;5.462;2024-02-21T01:48:27;101954.25;;;11.58
75431;BMP280;64127;51.488;5.462;2024-02-21T01:51:00;101930.47;;;11.55
75431;BMP280;64127;51.488;5.462;2024-02-21T01:53:42;101932.28;;;11.56
75431;BMP280;64127;51.488;5.462;2024-02-21T01:56:14;101934.91;;;11.56
75431;BMP280;64127;51.488;5.462;2024-02-21T01:58:48;101930.28;;;11.52
75431;BMP280;64127;51.488;5.462;2024-02-21T02:01:21;101931.84;;;11.49
75431;BMP280;64127;51.488;5.462;2024-02-21T02:03:55;101944.59;;;11.57
75431;BMP280;64127;51.488;5.462;2024-02-21T02:06:27;101945.25;;;11.53
75431;BMP280;64127;51.488;5.462;2024-02-21T02:08:59;101946.22;;;11.55
75431;BMP280;64127;51.488;5.462;2024-02-21T02:11:32;101938.50;;;11.58
75431;BMP280;64127;51.488;5.462;2024-02-21T02:14:05;101934.25;;;11.60
75431;BMP280;64127;51.488;5.462;2024-02-21T02:16:37;101913.91;;;11.56
75431;BMP280;64127;51.488;5.462;2024-02-21T02:19:09;101913.09;;;11.57
75431;BMP280;64127;51.488;5.462;2024-02-21T02:21:54;101918.41;;;11.59
75431;BMP280;64127;51.488;5.462;2024-02-21T02:24:28;101918.34;;;11.57
75431;BMP280;64127;51.488;5.462;2024-02-21T02:27:00;101919.16;;;11.56
75431;BMP280;64127;51.488;5.462;2024-02-21T02:29:32;101894.03;;;11.45
75431;BMP280;64127;51.488;5.462;2024-02-21T02:32:05;101903.88;;;11.49
75431;BMP280;64127;51.488;5.462;2024-02-21T02:34:37;101901.31;;;11.51
75431;BMP280;64127;51.488;5.462;2024-02-21T02:37:09;101869.31;;;11.42
75431;BMP280;64127;51.488;5.462;2024-02-21T02:39:42;101893.13;;;11.45
75431;BMP280;64127;51.488;5.462;2024-02-21T02:42:14;101880.09;;;11.46
75431;BMP280;64127;51.488;5.462;2024-02-21T02:44:46;101884.69;;;11.50
75431;BMP280;64127;51.488;5.462;2024-02-21T02:47:18;101892.56;;;11.50
75431;BMP280;64127;51.488;5.462;2024-02-21T02:49:50;101886.31;;;11.48
75431;BMP280;64127;51.488;5.462;2024-02-21T02:52:22;101866.22;;;11.49
75431;BMP280;64127;51.488;5.462;2024-02-21T02:54:54;101866.13;;;11.47
75431;BMP280;64127;51.488;5.462;2024-02-21T02:57:27;101866.97;;;11.46
75431;BMP280;64127;51.488;5.462;2024-02-21T02:59:59;101872.38;;;11.49
75431;BMP280;64127;51.488;5.462;2024-02-21T03:02:31;101862.69;;;11.48
75431;BMP280;64127;51.488;5.462;2024-02-21T03:05:21;101860.06;;;11.48
75431;BMP280;64127;51.488;5.462;2024-02-21T03:07:53;101848.75;;;11.49
75431;BMP280;64127;51.488;5.462;2024-02-21T03:10:47;101861.53;;;11.43
75431;BMP280;64127;51.488;5.462;2024-02-21T03:13:19;101853.84;;;11.46
75431;BMP280;64127;51.488;5.462;2024-02-21T03:15:51;101858.09;;;11.44
75431;BMP280;64127;51.488;5.462;2024-02-21T03:18:23;101865.94;;;11.44
75431;BMP280;64127;51.488;5.462;2024-02-21T03:20:55;101853.56;;;11.42
75431;BMP280;64127;51.488;5.462;2024-02-21T03:23:27;101846.72;;;11.44
75431;BMP280;64127;51.488;5.462;2024-02-21T03:25:59;101839.53;;;11.41
75431;BMP280;64127;51.488;5.462;2024-02-21T03:28:31;101833.66;;;11.45
75431;BMP280;64127;51.488;5.462;2024-02-21T03:31:03;101827.59;;;11.46
75431;BMP280;64127;51.488;5.462;2024-02-21T03:33:35;101832.00;;;11.47
75431;BMP280;64127;51.488;5.462;2024-02-21T03:36:13;101826.75;;;11.47
75431;BMP280;64127;51.488;5.462;2024-02-21T03:38:46;101811.09;;;11.49
75431;BMP280;64127;51.488;5.462;2024-02-21T03:41:19;101807.56;;;11.48
75431;BMP280;64127;51.488;5.462;2024-02-21T03:43:54;101802.16;;;11.45
75431;BMP280;64127;51.488;5.462;2024-02-21T03:46:27;101808.56;;;11.50
75431;BMP280;64127;51.488;5.462;2024-02-21T03:48:59;101814.63;;;11.49
75431;BMP280;64127;51.488;5.462;2024-02-21T03:51:32;101793.31;;;11.43
75431;BMP280;64127;51.488;5.462;2024-02-21T03:54:04;101781.78;;;11.41
75431;BMP280;64127;51.488;5.462;2024-02-21T03:56:40;101799.78;;;11.50
75431;BMP280;64127;51.488;5.462;2024-02-21T03:59:12;101786.66;;;11.50
75431;BMP280;64127;51.488;5.462;2024-02-21T04:01:44;101792.06;;;11.53
75431;BMP280;64127;51.488;5.462;2024-02-21T04:04:16;101786.88;;;11.54
75431;BMP280;64127;51.488;5.462;2024-02-21T04:06:49;101798.44;;;11.58
75431;BMP280;64127;51.488;5.462;2024-02-21T04:09:21;101784.44;;;11.57
75431;BMP280;64127;51.488;5.462;2024-02-21T04:11:53;101783.59;;;11.58
75431;BMP280;64127;51.488;5.462;2024-02-21T04:14:25;101793.13;;;11.56
75431;BMP280;64127;51.488;5.462;2024-02-21T04:16:57;101780.34;;;11.46
75431;BMP280;64127;51.488;5.462;2024-02-21T04:19:29;101801.00;;;11.56
75431;BMP280;64127;51.488;5.462;2024-02-21T04:22:03;101805.25;;;11.54
75431;BMP280;64127;51.488;5.462;2024-02-21T04:24:35;101797.31;;;11.53
75431;BMP280;64127;51.488;5.462;2024-02-21T04:27:07;101790.25;;;11.52
75431;BMP280;64127;51.488;5.462;2024-02-21T04:29:39;101797.06;;;11.48
75431;BMP280;64127;51.488;5.462;2024-02-21T04:32:11;101791.81;;;11.48
75431;BMP280;64127;51.488;5.462;2024-02-21T04:34:43;101784.75;;;11.47
75431;BMP280;64127;51.488;5.462;2024-02-21T04:37:15;101794.53;;;11.50
75431;BMP280;64127;51.488;5.462;2024-02-21T04:39:48;101786.56;;;11.48
75431;BMP280;64127;51.488;5.462;2024-02-21T04:42:20;101786.56;;;11.48
75431;BMP280;64127;51.488;5.462;2024-02-21T04:44:52;101789.81;;;11.44
75431;BMP280;64127;51.488;5.462;2024-02-21T04:47:25;101793.19;;;11.42
75431;BMP280;64127;51.488;5.462;2024-02-21T04:49:57;101781.00;;;11.42
75431;BMP280;64127;51.488;5.462;2024-02-21T04:52:29;101782.81;;;11.43
75431;BMP280;64127;51.488;5.462;2024-02-21T04:55:01;101782.97;;;11.46
75431;BMP280;64127;51.488;5.462;2024-02-21T04:57:33;101777.53;;;11.43
75431;BMP280;64127;51.488;5.462;2024-02-21T05:00:07;101781.31;;;11.48
75431;BMP280;64127;51.488;5.462;2024-02-21T05:02:39;101773.59;;;11.51
75431;BMP280;64127;51.488;5.462;2024-02-21T05:05:11;101771.13;;;11.54
75431;BMP280;64127;51.488;5.462;2024-02-21T05:07:43;101763.03;;;11.50
75431;BMP280;64127;51.488;5.462;2024-02-21T05:10:15;101759.66;;;11.52
75431;BMP280;64127;51.488;5.462;2024-02-21T05:12:49;101755.19;;;11.51
75431;BMP280;64127;51.488;5.462;2024-02-21T05:15:21;101750.69;;;11.49
75431;BMP280;64127;51.488;5.462;2024-02-21T05:17:54;101739.31;;;11.48
75431;BMP280;64127;51.488;5.462;2024-02-21T05:20:26;101753.59;;;11.53
75431;BMP280;64127;51.488;5.462;2024-02-21T05:22:58;101749.94;;;11.51
75431;BMP280;64127;51.488;5.462;2024-02-21T05:25:30;101737.56;;;11.49
75431;BMP280;64127;51.488;5.462;2024-02-21T05:28:02;101730.31;;;11.43
75431;BMP280;64127;51.488;5.462;2024-02-21T05:30:35;101730.63;;;11.49
75431;BMP280;64127;51.488;5.462;2024-02-21T05:33:07;101711.09;;;11.44
75431;BMP280;64127;51.488;5.462;2024-02-21T05:35:39;101714.56;;;11.43
75431;BMP280;64127;51.488;5.462;2024-02-21T05:38:11;101718.91;;;11.43
75431;BMP280;64127;51.488;5.462;2024-02-21T05:40:46;101718.50;;;11.35
75431;BMP280;64127;51.488;5.462;2024-02-21T05:43:18;101718.81;;;11.41
75431;BMP280;64127;51.488;5.462;2024-02-21T05:45:53;101703.91;;;11.40
75431;BMP280;64127;51.488;5.462;2024-02-21T05:48:25;101698.66;;;11.40
75431;BMP280;64127;51.488;5.462;2024-02-21T05:50:57;101710.78;;;11.38
75431;BMP280;64127;51.488;5.462;2024-02-21T05:53:29;101708.09;;;11.37
75431;BMP280;64127;51.488;5.462;2024-02-21T05:56:01;101696.84;;;11.39
75431;BMP280;64127;51.488;5.462;2024-02-21T05:58:33;101691.59;;;11.39
75431;BMP280;64127;51.488;5.462;2024-02-21T06:01:06;101691.59;;;11.39
75431;BMP280;64127;51.488;5.462;2024-02-21T06:03:38;101693.41;;;11.40
75431;BMP280;64127;51.488;5.462;2024-02-21T06:06:10;101689.94;;;11.41
75431;BMP280;64127;51.488;5.462;2024-02-21T06:08:42;101685.53;;;11.40
75431;BMP280;64127;51.488;5.462;2024-02-21T06:11:14;101681.09;;;11.39
75431;BMP280;64127;51.488;5.462;2024-02-21T06:13:47;101670.50;;;11.38
75431;BMP280;64127;51.488;5.462;2024-02-21T06:16:20;101667.97;;;11.39
75431;BMP280;64127;51.488;5.462;2024-02-21T06:18:52;101661.91;;;11.40
75431;BMP280;64127;51.488;5.462;2024-02-21T06:21:29;101664.44;;;11.39
75431;BMP280;64127;51.488;5.462;2024-02-21T06:24:01;101667.97;;;11.39
75431;BMP280;64127;51.488;5.462;2024-02-21T06:26:33;101667.88;;;11.38
75431;BMP280;64127;51.488;5.462;2024-02-21T06:29:06;101673.13;;;11.38
75431;BMP280;64127;51.488;5.462;2024-02-21T06:31:38;101666.97;;;11.37
75431;BMP280;64127;51.488;5.462;2024-02-21T06:34:10;101660.75;;;11.35
75431;BMP280;64127;51.488;5.462;2024-02-21T06:36:42;101667.88;;;11.38
75431;BMP280;64127;51.488;5.462;2024-02-21T06:39:14;101672.31;;;11.73
75431;BMP280;64127;51.488;5.462;2024-02-21T06:41:46;101660.69;;;11.51
75431;BMP280;64127;51.488;5.462;2024-02-21T06:44:20;101664.69;;;11.43
75431;BMP280;64127;51.488;5.462;2024-02-21T06:46:53;101671.13;;;11.50
75431;BMP280;64127;51.488;5.462;2024-02-21T06:49:26;101664.88;;;11.48
75431;BMP280;64127;51.488;5.462;2024-02-21T06:51:58;101665.59;;;11.44
75431;BMP280;64127;51.488;5.462;2024-02-21T06:54:30;101664.69;;;11.43
75431;BMP280;64127;51.488;5.462;2024-02-21T06:57:03;101673.47;;;11.44
75431;BMP280;64127;51.488;5.462;2024-02-21T06:59:35;101677.97;;;11.46
75431;BMP280;64127;51.488;5.462;2024-02-21T07:02:07;101663.03;;;11.45
75431;BMP280;64127;51.488;5.462;2024-02-21T07:04:39;101671.94;;;11.49
75431;BMP280;64127;51.488;5.462;2024-02-21T07:07:12;101663.97;;;11.47
75431;BMP280;64127;51.488;5.462;2024-02-21T07:09:44;101662.22;;;11.46
75431;BMP280;64127;51.488;5.462;2024-02-21T07:12:18;101661.22;;;11.44
75431;BMP280;64127;51.488;5.462;2024-02-21T07:14:50;101655.38;;;11.50
75431;BMP280;64127;51.488;5.462;2024-02-21T07:17:22;101658.97;;;11.52
75431;BMP280;64127;51.488;5.462;2024-02-21T07:19:54;101653.81;;;11.53
75431;BMP280;64127;51.488;5.462;2024-02-21T07:22:28;101652.91;;;11.53
75431;BMP280;64127;51.488;5.462;2024-02-21T07:25:01;101654.63;;;11.52
75431;BMP280;64127;51.488;5.462;2024-02-21T07:27:37;101649.28;;;11.51
75431;BMP280;64127;51.488;5.462;2024-02-21T07:30:09;101650.84;;;11.47
75431;BMP280;64127;51.488;5.462;2024-02-21T07:32:45;101638.50;;;11.45
75431;BMP280;64127;51.488;5.462;2024-02-21T07:35:20;101630.72;;;11.46
75431;BMP280;64127;51.488;5.462;2024-02-21T07:37:52;101616.44;;;11.41
75431;BMP280;64127;51.488;5.462;2024-02-21T07:40:24;101632.66;;;11.50
75431;BMP280;64127;51.488;5.462;2024-02-21T07:42:56;101618.63;;;11.50
75431;BMP280;64127;51.488;5.462;2024-02-21T07:45:28;101613.28;;;11.48
75431;BMP280;64127;51.488;5.462;2024-02-21T07:48:00;101612.38;;;11.48
75431;BMP280;64127;51.488;5.462;2024-02-21T07:50:32;101600.16;;;11.48
75431;BMP280;64127;51.488;5.462;2024-02-21T07:53:04;101599.50;;;11.52
75431;BMP280;64127;51.488;5.462;2024-02-21T07:55:36;101592.44;;;11.51
75431;BMP280;64127;51.488;5.462;2024-02-21T07:58:08;101584.56;;;11.51
75431;BMP280;64127;51.488;5.462;2024-02-21T08:00:41;101580.06;;;11.49
75431;BMP280;64127;51.488;5.462;2024-02-21T08:03:13;101578.22;;;11.46
75431;BMP280;64127;51.488;5.462;2024-02-21T08:05:47;101588.91;;;11.51
75431;BMP280;64127;51.488;5.462;2024-02-21T08:08:19;101586.22;;;11.49
75431;BMP280;64127;51.488;5.462;2024-02-21T08:10:53;101585.41;;;11.50
75431;BMP280;64127;51.488;5.462;2024-02-21T08:13:25;101576.03;;;11.55
75431;BMP280;64127;51.488;5.462;2024-02-21T08:15:59;101574.31;;;11.56
75431;BMP280;64127;51.488;5.462;2024-02-21T08:18:31;101569.06;;;11.56
75431;BMP280;64127;51.488;5.462;2024-02-21T08:21:03;101562.09;;;11.56
75431;BMP280;64127;51.488;5.462;2024-02-21T08:23:35;101555.31;;;11.61
75431;BMP280;64127;51.488;5.462;2024-02-21T08:26:07;101552.69;;;11.61
75431;BMP280;64127;51.488;5.462;2024-02-21T08:28:39;101550.16;;;11.63
75431;BMP280;64127;51.488;5.462;2024-02-21T08:31:19;101541.38;;;11.62
75431;BMP280;64127;51.488;5.462;2024-02-21T08:33:51;101546.47;;;11.59
75431;BMP280;64127;51.488;5.462;2024-02-21T08:36:23;101536.78;;;11.58
75431;BMP280;64127;51.488;5.462;2024-02-21T08:38:56;101529.75;;;11.57
75431;BMP280;64127;51.488;5.462;2024-02-21T08:41:30;101527.28;;;11.60
75431;BMP280;64127;51.488;5.462;2024-02-21T08:44:23;101521.31;;;11.64
75431;BMP280;64127;51.488;5.462;2024-02-21T08:46:58;101525.84;;;11.67
75431;BMP280;64127;51.488;5.462;2024-02-21T08:49:31;101515.25;;;11.65
75431;BMP280;64127;51.488;5.462;2024-02-21T08:52:06;101514.16;;;11.60
75431;BMP280;64127;51.488;5.462;2024-02-21T08:54:38;101507.38;;;11.65
75431;BMP280;64127;51.488;5.462;2024-02-21T08:57:10;101504.69;;;11.64
75431;BMP280;64127;51.488;5.462;2024-02-21T08:59:42;101496.81;;;11.64
75431;BMP280;64127;51.488;5.462;2024-02-21T09:02:14;101492.28;;;11.61
75431;BMP280;64127;51.488;5.462;2024-02-21T09:04:49;101486.09;;;11.59
75431;BMP280;64127;51.488;5.462;2024-02-21T09:07:21;101489.53;;;11.58
75431;BMP280;64127;51.488;5.462;2024-02-21T09:09:53;101497.50;;;11.60
75431;BMP280;64127;51.488;5.462;2024-02-21T09:12:25;101489.47;;;11.57
75431;BMP280;64127;51.488;5.462;2024-02-21T09:14:57;101498.69;;;11.49
75431;BMP280;64127;51.488;5.462;2024-02-21T09:17:29;101496.00;;;11.47
75431;BMP280;64127;51.488;5.462;2024-02-21T09:20:02;101480.31;;;11.49
75431;BMP280;64127;51.488;5.462;2024-02-21T09:22:35;101475.00;;;11.47
75431;BMP280;64127;51.488;5.462;2024-02-21T09:25:08;101479.28;;;11.45
75431;BMP280;64127;51.488;5.462;2024-02-21T09:27:44;101472.22;;;11.44
75431;BMP280;64127;51.488;5.462;2024-02-21T09:30:16;101481.75;;;11.42
75431;BMP280;64127;51.488;5.462;2024-02-21T09:32:48;101485.97;;;11.39
75431;BMP280;64127;51.488;5.462;2024-02-21T09:35:20;101474.66;;;11.40
75431;BMP280;64127;51.488;5.462;2024-02-21T09:37:55;101479.13;;;11.42
75431;BMP280;64127;51.488;5.462;2024-02-21T09:40:27;101456.56;;;11.46
75431;BMP280;64127;51.488;5.462;2024-02-21T09:43:03;101447.78;;;11.45
75431;BMP280;64127;51.488;5.462;2024-02-21T09:45:40;101442.53;;;11.45
75431;BMP280;64127;51.488;5.462;2024-02-21T09:51:51;101431.34;;;11.49
75431;BMP280;64127;51.488;5.462;2024-02-21T09:54:28;101424.56;;;11.54
75431;BMP280;64127;51.488;5.462;2024-02-21T09:57:05;101416.78;;;11.56
75431;BMP280;64127;51.488;5.462;2024-02-21T09:59:39;101417.97;;;11.62
75431;BMP280;64127;51.488;5.462;2024-02-21T10:02:13;101395.16;;;11.61
75431;BMP280;64127;51.488;5.462;2024-02-21T10:04:46;101390.94;;;11.65
75431;BMP280;64127;51.488;5.462;2024-02-21T10:07:18;101376.78;;;11.61
75431;BMP280;64127;51.488;5.462;2024-02-21T10:10:04;101378.22;;;11.73
75431;BMP280;64127;51.488;5.462;2024-02-21T10:12:36;101373.34;;;11.82
75431;BMP280;64127;51.488;5.462;2024-02-21T10:15:08;101363.75;;;11.82
75431;BMP280;64127;51.488;5.462;2024-02-21T10:17:40;101354.00;;;11.80
75431;BMP280;64127;51.488;5.462;2024-02-21T10:20:13;101355.13;;;11.85
75431;BMP280;64127;51.488;5.462;2024-02-21T10:22:47;101352.56;;;11.86
75431;BMP280;64127;51.488;5.462;2024-02-21T10:25:19;101341.34;;;11.90
75431;BMP280;64127;51.488;5.462;2024-02-21T10:27:52;101319.56;;;11.93
75431;BMP280;64127;51.488;5.462;2024-02-21T10:30:24;101314.44;;;11.96
75431;BMP280;64127;51.488;5.462;2024-02-21T10:32:56;101312.09;;;12.02
75431;BMP280;64127;51.488;5.462;2024-02-21T10:35:33;101302.41;;;12.01
75431;BMP280;64127;51.488;5.462;2024-02-21T10:38:05;101297.28;;;12.04
75431;BMP280;64127;51.488;5.462;2024-02-21T10:40:37;101280.84;;;12.08
75431;BMP280;64127;51.488;5.462;2024-02-21T10:43:14;101270.44;;;12.11
75431;BMP280;64127;51.488;5.462;2024-02-21T10:45:47;101258.47;;;12.17
75431;BMP280;64127;51.488;5.462;2024-02-21T10:48:29;101241.91;;;12.20
75431;BMP280;64127;51.488;5.462;2024-02-21T10:51:30;101237.44;;;12.17
75431;BMP280;64127;51.488;5.462;2024-02-21T10:56:47;101242.16;;;12.26
75431;BMP280;64127;51.488;5.462;2024-02-21T10:59:22;101251.03;;;12.28
75431;BMP280;64127;51.488;5.462;2024-02-21T11:01:55;101243.00;;;12.25
75431;BMP280;64127;51.488;5.462;2024-02-21T11:04:32;101251.72;;;12.24
75431;BMP280;64127;51.488;5.462;2024-02-21T11:07:09;101250.78;;;12.22
75431;BMP280;64127;51.488;5.462;2024-02-21T11:09:52;101253.31;;;12.20
75431;BMP280;64127;51.488;5.462;2024-02-21T11:12:27;101248.84;;;12.18
75431;BMP280;64127;51.488;5.462;2024-02-21T11:15:06;101249.78;;;12.20
75431;BMP280;64127;51.488;5.462;2024-02-21T11:17:38;101239.53;;;12.26
75431;BMP280;64127;51.488;5.462;2024-02-21T11:20:32;101234.47;;;12.31
75431;BMP280;64127;51.488;5.462;2024-02-21T11:23:04;101215.44;;;12.36
75431;BMP280;64127;51.488;5.462;2024-02-21T11:25:37;101207.41;;;12.33
75431;BMP280;64127;51.488;5.462;2024-02-21T11:28:09;101200.28;;;12.31
75431;BMP280;64127;51.488;5.462;2024-02-21T11:30:43;101192.50;;;12.32
75431;BMP280;64127;51.488;5.462;2024-02-21T11:33:17;101179.59;;;12.38
75431;BMP280;64127;51.488;5.462;2024-02-21T11:35:49;101168.50;;;12.47
75431;BMP280;64127;51.488;5.462;2024-02-21T11:38:22;101159.28;;;12.56
75431;BMP280;64127;51.488;5.462;2024-02-21T11:40:57;101170.41;;;12.73
75431;BMP280;64127;51.488;5.462;2024-02-21T11:43:30;101170.56;;;12.78
75431;BMP280;64127;51.488;5.462;2024-02-21T11:46:02;101164.28;;;12.74
75431;BMP280;64127;51.488;5.462;2024-02-21T11:48:35;101172.16;;;12.73
75431;BMP280;64127;51.488;5.462;2024-02-21T11:51:07;101161.44;;;12.68
75431;BMP280;64127;51.488;5.462;2024-02-21T11:53:39;101143.94;;;12.68
75431;BMP280;64127;51.488;5.462;2024-02-21T11:56:25;101119.53;;;12.73
75431;BMP280;64127;51.488;5.462;2024-02-21T11:58:59;101107.34;;;12.75
75431;BMP280;64127;51.488;5.462;2024-02-21T12:01:31;101100.69;;;12.84
75431;BMP280;64127;51.488;5.462;2024-02-21T12:04:03;101099.19;;;12.91
75431;BMP280;64127;51.488;5.462;2024-02-21T12:06:35;101089.53;;;12.91
75431;BMP280;64127;51.488;5.462;2024-02-21T12:09:08;101080.00;;;12.95
75431;BMP280;64127;51.488;5.462;2024-02-21T12:11:57;101080.97;;;12.97
75431;BMP280;64127;51.488;5.462;2024-02-21T12:14:31;101060.06;;;13.01
75431;BMP280;64127;51.488;5.462;2024-02-21T12:17:03;101061.13;;;13.06
75431;BMP280;64127;51.488;5.462;2024-02-21T12:19:39;101059.53;;;13.10
75431;BMP280;64127;51.488;5.462;2024-02-21T12:22:18;101035.00;;;13.11
75431;BMP280;64127;51.488;5.462;2024-02-21T12:24:50;101034.38;;;13.18
75431;BMP280;64127;51.488;5.462;2024-02-21T12:27:22;101041.47;;;13.20
75431;BMP280;64127;51.488;5.462;2024-02-21T12:29:55;101021.41;;;13.24
75431;BMP280;64127;51.488;5.462;2024-02-21T12:32:27;101019.63;;;13.23
75431;BMP280;64127;51.488;5.462;2024-02-21T12:34:59;101012.69;;;13.25
75431;BMP280;64127;51.488;5.462;2024-02-21T12:37:32;101008.34;;;13.27
75431;BMP280;64127;51.488;5.462;2024-02-21T12:40:08;100989.91;;;13.27
75431;BMP280;64127;51.488;5.462;2024-02-21T12:42:42;100988.94;;;13.24
75431;BMP280;64127;51.488;5.462;2024-02-21T12:45:14;100974.06;;;13.26
75431;BMP280;64127;51.488;5.462;2024-02-21T12:47:48;100954.66;;;13.22
75431;BMP280;64127;51.488;5.462;2024-02-21T12:50:20;100953.88;;;13.25
75431;BMP280;64127;51.488;5.462;2024-02-21T12:52:52;100944.13;;;13.22
75431;BMP280;64127;51.488;5.462;2024-02-21T12:55:24;100941.56;;;13.24
75431;BMP280;64127;51.488;5.462;2024-02-21T12:57:56;100911.34;;;13.12
75431;BMP280;64127;51.488;5.462;2024-02-21T13:00:29;100923.88;;;13.19
75431;BMP280;64127;51.488;5.462;2024-02-21T13:03:04;100913.25;;;13.16
75431;BMP280;64127;51.488;5.462;2024-02-21T13:05:36;100910.59;;;13.15
75431;BMP280;64127;51.488;5.462;2024-02-21T13:08:09;100907.81;;;13.12
75431;BMP280;64127;51.488;5.462;2024-02-21T13:10:41;100915.72;;;13.12
75431;BMP280;64127;51.488;5.462;2024-02-21T13:13:13;100901.72;;;13.13
75431;BMP280;64127;51.488;5.462;2024-02-21T13:15:45;100905.25;;;13.13
75431;BMP280;64127;51.488;5.462;2024-02-21T13:18:17;100905.25;;;13.13
75431;BMP280;64127;51.488;5.462;2024-02-21T13:20:50;100902.78;;;13.18
75431;BMP280;64127;51.488;5.462;2024-02-21T13:23:22;100887.75;;;13.15
75431;BMP280;64127;51.488;5.462;2024-02-21T13:25:54;100882.56;;;13.17
75431;BMP280;64127;51.488;5.462;2024-02-21T13:28:26;100884.16;;;13.12
75431;BMP280;64127;51.488;5.462;2024-02-21T13:30:58;100884.16;;;13.12
75431;BMP280;64127;51.488;5.462;2024-02-21T13:33:30;100883.28;;;13.11
75431;BMP280;64127;51.488;5.462;2024-02-21T13:36:02;100885.03;;;13.12
75431;BMP280;64127;51.488;5.462;2024-02-21T13:38:35;100857.81;;;13.10
75431;BMP280;64127;51.488;5.462;2024-02-21T13:41:07;100851.25;;;13.26
75431;BMP280;64127;51.488;5.462;2024-02-21T13:43:39;100844.81;;;13.16
75431;BMP280;64127;51.488;5.462;2024-02-21T13:46:11;100837.66;;;13.11
75431;BMP280;64127;51.488;5.462;2024-02-21T13:48:43;100826.16;;;13.09
75431;BMP280;64127;51.488;5.462;2024-02-21T13:51:15;100830.59;;;13.10
75431;BMP280;64127;51.488;5.462;2024-02-21T13:53:48;100820.97;;;13.10
75431;BMP280;64127;51.488;5.462;2024-02-21T13:56:20;100804.16;;;13.07
75431;BMP280;64127;51.488;5.462;2024-02-21T13:58:52;100792.78;;;13.08
75431;BMP280;64127;51.488;5.462;2024-02-21T14:01:24;100798.81;;;13.05
75431;BMP280;64127;51.488;5.462;2024-02-21T14:03:56;100784.56;;;12.97
75431;BMP280;64127;51.488;5.462;2024-02-21T14:06:28;100790.81;;;13.01
75431;BMP280;64127;51.488;5.462;2024-02-21T14:09:01;100789.19;;;13.06
75431;BMP280;64127;51.488;5.462;2024-02-21T14:11:33;100786.53;;;13.04
75431;BMP280;64127;51.488;5.462;2024-02-21T14:14:06;100776.78;;;13.02
75431;BMP280;64127;51.488;5.462;2024-02-21T14:16:38;100755.84;;;13.05
75431;BMP280;64127;51.488;5.462;2024-02-21T14:19:10;100753.09;;;13.00
75431;BMP280;64127;51.488;5.462;2024-02-21T14:21:43;100751.38;;;13.02
75431;BMP280;64127;51.488;5.462;2024-02-21T14:24:16;100734.69;;;13.02
75431;BMP280;64127;51.488;5.462;2024-02-21T14:26:48;100728.50;;;13.00
75431;BMP280;64127;51.488;5.462;2024-02-21T14:29:22;100714.38;;;12.96
75431;BMP280;64127;51.488;5.462;2024-02-21T14:31:54;100713.56;;;12.99
75431;BMP280;64127;51.488;5.462;2024-02-21T14:34:26;100705.66;;;12.97
75431;BMP280;64127;51.488;5.462;2024-02-21T14:36:58;100705.66;;;12.99